Arcola, IN

9:05 AM EDT on April 26, 2015 (GMT -0400)
SW Allen | | Change Station
CLOSE
Current Station
Personal Weather Station
Location: Fort Wayne, IN
Elevation: 860 ft
Nearby Weather Stations

Elev 860 ft 41.05 °N, 85.29 °W | Updated 14 minutes ago

Clear
Clear
41.6 °F
Feels Like 39 °F
N
4.0
Wind Variable Wind from NNE
Gusts 15.0 mph

Today
High -- | Low -- °F
--% Chance of Precip.
Yesterday
High -- | Low -- °F
Precip. -- in
6:46 AM 8:32 PM
First Quarter, 55% visible
Pressure 29.92 in
Visibility 10.0 miles
Clouds Few 24000 ft
Windchill 39 °F
Dew Point 32 °F
Humidity 70%
Rainfall 0.00 in
Snow Depth Not available.
UV 2 out of 12
Pollen 10.60 out of 12
Air Quality Not available.
Flu Activity Local Activity
METAR KFWA 261254Z 04013KT 10SM FEW240 06/M01 A2990 RMK AO2 SLP131 T00561011

More Conditions Fewer Conditions

Pressure 29.92 in
Visibility 10.0 miles
Clouds Few 24000 ft
Windchill 39 °F
Dew Point 32 °F
Humidity 70%
Rainfall 0.00 in
Snow Depth Not available.
UV 2 out of 12
Pollen 10.60 out of 12
Air Quality Not available.
Flu Activity Local Activity
METAR KFWA 261254Z 04013KT 10SM FEW240 06/M01 A2990 RMK AO2 SLP131 T00561011

More Conditions Fewer Conditions

The full scope of the disaster following a powerful 7.8-magnitude earthquake in Nepal may not come into view for days, but global charities are already sending emergency aid. Click to see how you can help.

10-Day Weather Forecast

Almanac

Astronomy

Apr. 26, 2015 Rise Set
Actual Time
Civil Twilight
Nautical Twilight
Astronomical Twilight
Moon
Length of Visible Light
Length of Day
Tomorrow will be .
, % of the Moon is Illuminated

Today's Extremes

State Highs State Lows

Community

WunderPhotos

Upload Photos

1,816,983 photos uploaded!

WunderBlogs® & News

Nearby

Air Quality

  Air Quality AQ Index Pollutant
Not available.

Snow Depth

Station Depth Elevation

Earthquake Activity

City Distance Mag. Time & Date
Minimum magnitude displayed is 2.5.

Coastal Water Temperatures

Place Temperature

Stations

Nearby Weather Stations

Station Location Temp. Windchill Dew Point Humidity Wind Precip. Elev Updated Type